Time;durP1;ratioP1;P1;durP2;ratioP2;P2;SDS_P1;SDS_P2;PMS_P1;PMS_P2;Temp;Humidity;BMP_temperature;BMP_pressure;BME280_temperature;BME280_humidity;BME280_pressure;Samples;Min_cycle;Max_cycle;Signal;HPM_P1;HPM_P2
2021/09/17 00:01:52;;;;;;;31.55;22.02;;;;;;;;;;5055863;28;20045;-87
2021/09/17 00:04:18;;;;;;;33.90;24.65;;;;;;;;;;5055680;28;20048;-87
2021/09/17 00:06:44;;;;;;;31.63;23.83;;;;;;;;;;5055882;28;20048;-87
2021/09/17 00:09:10;;;;;;;54.17;31.90;;;;;;;;;;5056472;28;20041;-88
2021/09/17 00:11:37;;;;;;;53.00;32.60;;;;;;;;;;5057116;28;20086;-88
2021/09/17 00:14:03;;;;;;;47.75;29.10;;;;;;;;;;5057273;28;20101;-89
2021/09/17 00:16:29;;;;;;;43.90;26.45;;;;;;;;;;5056498;28;20036;-88
2021/09/17 00:18:55;;;;;;;37.35;25.23;;;;;;;;;;5055782;28;20055;-88
2021/09/17 00:21:22;;;;;;;40.70;26.10;;;;;;;;;;5055705;28;20101;-88
2021/09/17 00:23:48;;;;;;;36.60;24.77;;;;;;;;;;5056408;28;20045;-87
2021/09/17 00:26:14;;;;;;;48.38;29.80;;;;;;;;;;5055475;28;20102;-87
2021/09/17 00:28:40;;;;;;;53.90;31.02;;;;;;;;;;5073078;28;20175;-86
2021/09/17 00:31:06;;;;;;;29.88;23.55;;;;;;;;;;5072284;28;20499;-87
2021/09/17 00:33:32;;;;;;;34.95;25.00;;;;;;;;;;5055792;28;20049;-87
2021/09/17 00:35:59;;;;;;;38.85;26.35;;;;;;;;;;5055770;28;20392;-89
2021/09/17 00:38:25;;;;;;;37.10;24.75;;;;;;;;;;5072931;28;20114;-87
2021/09/17 00:40:51;;;;;;;35.45;23.63;;;;;;;;;;5055515;28;20055;-87
2021/09/17 00:43:17;;;;;;;45.22;28.15;;;;;;;;;;5055339;28;20051;-87
2021/09/17 00:45:44;;;;;;;37.60;24.02;;;;;;;;;;5076269;28;20054;-87
2021/09/17 00:48:11;;;;;;;36.35;24.33;;;;;;;;;;5075839;28;20049;-88
2021/09/17 00:50:37;;;;;;;39.88;23.08;;;;;;;;;;5059526;28;20052;-87
2021/09/17 00:53:07;;;;;;;157.18;28.30;;;;;;;;;;5075868;28;20052;-87
2021/09/17 00:55:33;;;;;;;55.63;25.75;;;;;;;;;;5060140;28;20052;-87
2021/09/17 00:57:59;;;;;;;67.50;23.70;;;;;;;;;;5076208;28;20047;-89
2021/09/17 01:00:25;;;;;;;46.92;25.98;;;;;;;;;;5076697;28;20048;-87
2021/09/17 01:02:51;;;;;;;42.13;26.13;;;;;;;;;;5076379;28;20044;-88
2021/09/17 01:05:18;;;;;;;44.60;27.23;;;;;;;;;;5081635;28;20051;-87
2021/09/17 01:07:44;;;;;;;39.40;27.35;;;;;;;;;;5082786;28;20043;-87
2021/09/17 01:10:11;;;;;;;38.05;26.77;;;;;;;;;;5083131;28;20048;-87
2021/09/17 01:12:38;;;;;;;39.97;26.17;;;;;;;;;;5082855;28;20059;-87
2021/09/17 01:15:05;;;;;;;43.97;28.63;;;;;;;;;;5099994;28;20092;-87
2021/09/17 01:17:36;;;;;;;38.55;27.08;;;;;;;;;;5099279;28;20618;-87
2021/09/17 01:20:04;;;;;;;30.88;23.60;;;;;;;;;;5082267;28;20047;-90
2021/09/17 01:22:30;;;;;;;27.58;22.40;;;;;;;;;;5099177;28;20043;-88
2021/09/17 01:24:56;;;;;;;32.50;24.25;;;;;;;;;;5082969;28;20047;-87
2021/09/17 01:27:23;;;;;;;29.17;23.10;;;;;;;;;;5082075;28;20225;-87
2021/09/17 01:29:50;;;;;;;24.58;20.60;;;;;;;;;;5099317;28;20039;-88
2021/09/17 01:32:16;;;;;;;25.20;20.73;;;;;;;;;;5098937;28;20044;-87
2021/09/17 01:34:43;;;;;;;32.75;24.55;;;;;;;;;;5082140;28;20052;-87
2021/09/17 01:37:09;;;;;;;28.95;24.10;;;;;;;;;;5099119;28;20047;-87
2021/09/17 01:39:35;;;;;;;26.60;20.02;;;;;;;;;;5098837;28;20471;-87
2021/09/17 01:42:02;;;;;;;34.67;25.20;;;;;;;;;;5082260;28;20055;-90
2021/09/17 01:44:28;;;;;;;35.33;26.10;;;;;;;;;;5098740;28;20054;-88
2021/09/17 01:46:54;;;;;;;31.38;22.50;;;;;;;;;;5081615;28;20039;-88
2021/09/17 01:49:20;;;;;;;27.17;21.80;;;;;;;;;;5081897;28;20501;-88
2021/09/17 01:51:47;;;;;;;35.33;26.42;;;;;;;;;;5081918;28;20135;-87
2021/09/17 01:54:13;;;;;;;27.73;22.30;;;;;;;;;;5081618;28;20051;-87
2021/09/17 01:56:39;;;;;;;27.45;22.38;;;;;;;;;;5097967;28;20444;-87
2021/09/17 01:59:06;;;;;;;20.95;17.10;;;;;;;;;;5098518;28;20047;-87
2021/09/17 02:01:32;;;;;;;22.92;19.42;;;;;;;;;;5081584;28;20082;-87
2021/09/17 02:04:00;;;;;;;29.65;22.85;;;;;;;;;;5087218;28;20143;-87
2021/09/17 02:06:27;;;;;;;31.10;23.60;;;;;;;;;;5057928;28;20040;-88
2021/09/17 02:08:55;;;;;;;28.30;21.02;;;;;;;;;;5058272;28;20044;-88
2021/09/17 02:11:21;;;;;;;37.15;27.02;;;;;;;;;;5058698;28;20060;-87
2021/09/17 02:13:47;;;;;;;34.30;25.63;;;;;;;;;;5057948;28;20358;-88
2021/09/17 02:16:14;;;;;;;34.15;25.02;;;;;;;;;;5058092;28;20063;-88
2021/09/17 02:18:40;;;;;;;36.30;26.38;;;;;;;;;;5058089;28;20094;-88
2021/09/17 02:21:09;;;;;;;37.85;26.75;;;;;;;;;;5074464;28;20375;-88
2021/09/17 02:23:35;;;;;;;35.30;27.48;;;;;;;;;;5058469;28;20346;-86
2021/09/17 02:26:02;;;;;;;42.30;29.83;;;;;;;;;;5057834;28;20133;-90
2021/09/17 02:28:28;;;;;;;35.17;26.35;;;;;;;;;;5057283;28;20045;-87
2021/09/17 02:30:54;;;;;;;57.03;29.45;;;;;;;;;;5057564;28;20059;-87
2021/09/17 02:33:21;;;;;;;71.10;32.28;;;;;;;;;;5057676;28;20052;-87
2021/09/17 02:35:47;;;;;;;120.82;34.53;;;;;;;;;;5074967;28;20052;-87
2021/09/17 02:38:15;;;;;;;56.53;32.67;;;;;;;;;;5057369;28;20049;-88
2021/09/17 02:40:42;;;;;;;44.70;30.42;;;;;;;;;;5074380;28;20389;-87
2021/09/17 02:43:08;;;;;;;70.35;31.52;;;;;;;;;;5057274;28;20056;-87
2021/09/17 02:45:34;;;;;;;36.88;27.38;;;;;;;;;;5057486;28;20044;-87
2021/09/17 02:48:00;;;;;;;44.75;28.85;;;;;;;;;;5057291;28;20051;-86
2021/09/17 02:50:27;;;;;;;33.30;25.00;;;;;;;;;;5057104;28;20051;-87
2021/09/17 02:52:53;;;;;;;29.33;24.10;;;;;;;;;;5057930;28;20518;-87
2021/09/17 02:55:20;;;;;;;29.92;22.75;;;;;;;;;;5057835;28;20048;-87
2021/09/17 02:57:46;;;;;;;27.45;22.02;;;;;;;;;;5057155;28;20070;-88
2021/09/17 03:00:12;;;;;;;29.13;23.30;;;;;;;;;;5073630;28;20043;-86
2021/09/17 03:02:39;;;;;;;35.30;28.38;;;;;;;;;;5056677;28;20048;-87
2021/09/17 03:05:05;;;;;;;44.85;30.23;;;;;;;;;;5073089;28;20549;-89
2021/09/17 03:07:31;;;;;;;35.80;27.17;;;;;;;;;;5073204;28;20048;-87
2021/09/17 03:09:57;;;;;;;54.53;36.85;;;;;;;;;;5056847;28;20118;-86
2021/09/17 03:12:23;;;;;;;62.33;39.30;;;;;;;;;;5057478;28;20086;-87
2021/09/17 03:14:50;;;;;;;57.33;37.35;;;;;;;;;;5056462;28;20102;-87
2021/09/17 03:17:16;;;;;;;36.83;27.90;;;;;;;;;;5056619;28;20135;-87
2021/09/17 03:19:42;;;;;;;34.03;27.83;;;;;;;;;;5056934;28;20048;-88
2021/09/17 03:22:08;;;;;;;42.45;30.33;;;;;;;;;;5056642;28;20045;-88
2021/09/17 03:24:35;;;;;;;41.95;30.75;;;;;;;;;;5072988;28;20128;-87
2021/09/17 03:27:01;;;;;;;49.22;33.90;;;;;;;;;;5056989;28;20047;-88
2021/09/17 03:29:27;;;;;;;50.72;34.92;;;;;;;;;;5056397;28;20041;-88
2021/09/17 03:31:53;;;;;;;40.45;30.08;;;;;;;;;;5056471;28;20381;-86
2021/09/17 03:34:19;;;;;;;40.13;29.92;;;;;;;;;;5056405;28;20048;-89
2021/09/17 03:36:46;;;;;;;43.50;30.27;;;;;;;;;;5057163;28;20041;-87
2021/09/17 03:39:13;;;;;;;33.05;26.13;;;;;;;;;;5056259;28;20083;-88
2021/09/17 03:41:39;;;;;;;37.33;28.73;;;;;;;;;;5056266;28;20066;-87
2021/09/17 03:44:05;;;;;;;29.70;23.60;;;;;;;;;;5072875;28;20050;-90
2021/09/17 03:46:32;;;;;;;30.65;25.50;;;;;;;;;;5055653;28;20036;-88
2021/09/17 03:48:58;;;;;;;24.15;19.95;;;;;;;;;;5056170;28;20469;-87
2021/09/17 03:51:24;;;;;;;29.15;24.17;;;;;;;;;;5072701;28;20044;-88
2021/09/17 03:53:51;;;;;;;30.50;24.48;;;;;;;;;;5056102;28;20059;-87
2021/09/17 03:56:18;;;;;;;32.08;24.95;;;;;;;;;;5072678;28;20052;-88
2021/09/17 03:58:44;;;;;;;32.50;25.17;;;;;;;;;;5055990;28;20056;-87
2021/09/17 04:01:10;;;;;;;32.50;25.70;;;;;;;;;;5055875;28;20171;-88
2021/09/17 04:03:36;;;;;;;34.60;27.08;;;;;;;;;;5055704;28;20071;-88
2021/09/17 04:06:03;;;;;;;33.45;26.25;;;;;;;;;;5055825;28;20048;-86
2021/09/17 04:08:29;;;;;;;31.67;25.63;;;;;;;;;;5073216;28;20044;-86
2021/09/17 04:10:55;;;;;;;31.63;25.10;;;;;;;;;;5055884;28;20053;-86
2021/09/17 04:13:21;;;;;;;35.22;29.05;;;;;;;;;;5055769;28;20048;-86
2021/09/17 04:15:47;;;;;;;33.17;25.75;;;;;;;;;;5072619;28;20048;-85
2021/09/17 04:18:15;;;;;;;31.25;26.77;;;;;;;;;;5055353;28;20523;-88
2021/09/17 04:20:41;;;;;;;37.05;28.83;;;;;;;;;;5055350;28;20135;-85
2021/09/17 04:23:07;;;;;;;53.80;34.25;;;;;;;;;;5056341;28;20067;-89
2021/09/17 04:25:33;;;;;;;64.15;39.00;;;;;;;;;;5072584;28;20544;-87
2021/09/17 04:28:00;;;;;;;54.55;34.88;;;;;;;;;;5055822;28;20481;-86
2021/09/17 04:30:26;;;;;;;47.28;32.38;;;;;;;;;;5072495;28;20052;-86
2021/09/17 04:32:52;;;;;;;47.10;33.63;;;;;;;;;;5072881;28;20048;-85
2021/09/17 04:35:18;;;;;;;51.53;34.25;;;;;;;;;;5072120;28;20051;-86
2021/09/17 04:37:53;;;;;;;58.55;38.05;;;;;;;;;;5072201;28;20045;-86
2021/09/17 04:40:19;;;;;;;53.75;35.92;;;;;;;;;;5055476;28;20084;-87
2021/09/17 04:42:45;;;;;;;54.47;35.40;;;;;;;;;;5072399;28;20127;-86
2021/09/17 04:45:12;;;;;;;50.03;33.55;;;;;;;;;;5055349;28;20048;-86
2021/09/17 04:47:39;;;;;;;42.17;30.67;;;;;;;;;;5071801;28;20045;-86
2021/09/17 04:50:05;;;;;;;36.20;27.85;;;;;;;;;;5055359;28;20484;-87
2021/09/17 04:52:31;;;;;;;37.90;28.30;;;;;;;;;;5072171;28;20068;-84
2021/09/17 04:54:59;;;;;;;39.33;28.77;;;;;;;;;;5054988;28;20052;-85
2021/09/17 04:57:26;;;;;;;34.30;26.30;;;;;;;;;;5071712;28;20063;-85
2021/09/17 04:59:53;;;;;;;30.25;24.65;;;;;;;;;;5055886;28;20675;-86
2021/09/17 05:02:19;;;;;;;42.22;31.73;;;;;;;;;;5071705;28;20051;-84
2021/09/17 05:04:45;;;;;;;41.25;30.20;;;;;;;;;;5054912;28;20060;-84
2021/09/17 05:07:11;;;;;;;37.85;29.38;;;;;;;;;;5072222;28;20058;-86
2021/09/17 05:09:38;;;;;;;36.20;28.60;;;;;;;;;;5054996;28;20080;-84
2021/09/17 05:12:05;;;;;;;38.47;28.00;;;;;;;;;;5054609;28;20048;-87
2021/09/17 05:14:31;;;;;;;38.38;27.73;;;;;;;;;;5055488;28;20408;-86
2021/09/17 05:16:57;;;;;;;37.55;28.25;;;;;;;;;;5071827;28;20091;-87
2021/09/17 05:19:24;;;;;;;31.02;24.40;;;;;;;;;;5071613;28;20097;-86
2021/09/17 05:21:54;;;;;;;34.53;27.17;;;;;;;;;;5055274;28;20053;-86
2021/09/17 05:24:21;;;;;;;28.38;23.27;;;;;;;;;;5055041;28;20135;-87
2021/09/17 05:26:47;;;;;;;26.92;22.08;;;;;;;;;;5054868;28;20161;-86
2021/09/17 05:29:13;;;;;;;27.17;22.48;;;;;;;;;;5054897;28;20113;-87
2021/09/17 05:31:40;;;;;;;34.90;26.80;;;;;;;;;;5075263;28;20049;-86
2021/09/17 05:34:06;;;;;;;42.08;29.00;;;;;;;;;;5058295;28;20059;-86
2021/09/17 05:36:32;;;;;;;27.05;21.83;;;;;;;;;;5075836;28;20039;-86
2021/09/17 05:38:59;;;;;;;29.98;25.25;;;;;;;;;;5058587;28;20044;-86
2021/09/17 05:41:25;;;;;;;29.85;23.58;;;;;;;;;;5075072;28;20373;-86
2021/09/17 05:43:51;;;;;;;27.55;23.17;;;;;;;;;;5058414;28;20052;-86
2021/09/17 05:46:18;;;;;;;31.45;25.50;;;;;;;;;;5075472;28;20041;-86
2021/09/17 05:48:44;;;;;;;27.88;23.40;;;;;;;;;;5058119;28;20045;-87
2021/09/17 05:51:10;;;;;;;38.83;30.33;;;;;;;;;;5058299;28;20135;-88
2021/09/17 05:53:37;;;;;;;38.90;30.48;;;;;;;;;;5058023;28;20053;-85
2021/09/17 05:56:03;;;;;;;36.85;29.92;;;;;;;;;;5074940;28;20060;-86
2021/09/17 05:58:34;;;;;;;38.50;30.27;;;;;;;;;;5058338;28;20480;-87
2021/09/17 06:01:00;;;;;;;38.45;30.02;;;;;;;;;;5058215;28;20041;-86
2021/09/17 06:03:27;;;;;;;33.25;27.02;;;;;;;;;;5080769;28;20077;-86
2021/09/17 06:05:53;;;;;;;34.40;27.48;;;;;;;;;;5081612;28;20058;-86
2021/09/17 06:08:19;;;;;;;36.15;29.02;;;;;;;;;;5081144;28;20044;-86
2021/09/17 06:10:46;;;;;;;31.80;26.15;;;;;;;;;;5081456;28;20048;-86
2021/09/17 06:13:13;;;;;;;31.70;26.33;;;;;;;;;;5081304;28;20054;-87
2021/09/17 06:15:39;;;;;;;36.03;28.00;;;;;;;;;;5098211;28;20055;-86
2021/09/17 06:18:05;;;;;;;30.00;25.45;;;;;;;;;;5080950;28;20054;-85
2021/09/17 06:20:32;;;;;;;27.67;22.75;;;;;;;;;;5081922;28;20439;-87
2021/09/17 06:22:58;;;;;;;37.92;28.60;;;;;;;;;;5081219;28;20134;-86
2021/09/17 06:25:24;;;;;;;44.72;31.65;;;;;;;;;;5098056;28;20476;-86
2021/09/17 06:27:51;;;;;;;56.30;36.22;;;;;;;;;;5098225;28;20052;-87
2021/09/17 06:30:18;;;;;;;53.20;36.45;;;;;;;;;;5098102;28;20134;-86
2021/09/17 06:32:44;;;;;;;49.92;34.35;;;;;;;;;;5081197;28;20051;-86
2021/09/17 06:35:11;;;;;;;48.60;34.15;;;;;;;;;;5081815;28;20418;-88
2021/09/17 06:37:43;;;;;;;48.47;33.53;;;;;;;;;;5080855;28;20100;-86
2021/09/17 06:40:10;;;;;;;49.60;34.92;;;;;;;;;;5081617;28;20047;-89
2021/09/17 06:42:36;;;;;;;44.95;32.58;;;;;;;;;;5096677;28;20050;-86
2021/09/17 06:45:03;;;;;;;39.92;28.85;;;;;;;;;;5080642;28;20563;-87
2021/09/17 06:47:29;;;;;;;37.20;29.05;;;;;;;;;;5080323;28;20044;-86
2021/09/17 06:49:59;;;;;;;35.30;29.00;;;;;;;;;;5080589;28;20039;-86
2021/09/17 06:52:25;;;;;;;35.22;27.52;;;;;;;;;;5080707;28;20450;-87
2021/09/17 06:54:52;;;;;;;32.45;27.35;;;;;;;;;;5080537;28;20044;-87
2021/09/17 06:57:18;;;;;;;29.90;26.05;;;;;;;;;;5097329;28;20395;-86
2021/09/17 06:59:44;;;;;;;34.42;28.10;;;;;;;;;;5097492;28;20071;-87
2021/09/17 07:02:11;;;;;;;41.45;30.23;;;;;;;;;;5080763;28;20124;-86
2021/09/17 07:04:37;;;;;;;48.85;32.97;;;;;;;;;;5096894;28;20100;-88
2021/09/17 07:07:03;;;;;;;42.67;31.52;;;;;;;;;;5097242;28;20055;-87
2021/09/17 07:09:29;;;;;;;39.95;30.48;;;;;;;;;;5080318;28;20352;-86
2021/09/17 07:11:55;;;;;;;39.75;29.20;;;;;;;;;;5080539;28;20050;-87
2021/09/17 07:14:22;;;;;;;37.75;29.17;;;;;;;;;;5080102;28;20054;-87
2021/09/17 07:16:48;;;;;;;38.92;29.20;;;;;;;;;;5080117;28;20437;-86
2021/09/17 07:19:15;;;;;;;40.78;29.88;;;;;;;;;;5080012;28;20051;-89
2021/09/17 07:21:41;;;;;;;36.17;29.02;;;;;;;;;;5080111;28;20044;-85
2021/09/17 07:24:07;;;;;;;42.00;31.25;;;;;;;;;;5079973;28;20058;-87
2021/09/17 07:26:33;;;;;;;39.25;30.05;;;;;;;;;;5079620;28;20043;-87
2021/09/17 07:29:00;;;;;;;35.17;29.30;;;;;;;;;;5097134;28;20035;-88
2021/09/17 07:31:26;;;;;;;36.40;29.35;;;;;;;;;;5096631;28;20040;-87
2021/09/17 07:33:52;;;;;;;37.33;30.30;;;;;;;;;;5079752;28;20043;-86
2021/09/17 07:36:18;;;;;;;33.78;28.15;;;;;;;;;;5097359;28;20051;-86
2021/09/17 07:38:44;;;;;;;37.10;30.67;;;;;;;;;;5080070;28;20446;-86
2021/09/17 07:41:10;;;;;;;36.15;28.40;;;;;;;;;;5096615;28;20058;-89
2021/09/17 07:43:37;;;;;;;34.08;27.20;;;;;;;;;;5079868;28;20047;-86
2021/09/17 07:46:03;;;;;;;36.33;28.45;;;;;;;;;;5079485;28;20043;-87
2021/09/17 07:48:29;;;;;;;35.15;29.38;;;;;;;;;;5079332;28;20043;-86
2021/09/17 07:50:55;;;;;;;35.63;28.13;;;;;;;;;;5080216;28;20368;-87
2021/09/17 07:53:22;;;;;;;33.47;26.48;;;;;;;;;;5079926;28;20398;-87
2021/09/17 07:55:48;;;;;;;34.67;27.27;;;;;;;;;;5097203;28;20104;-87
2021/09/17 07:58:14;;;;;;;32.85;26.30;;;;;;;;;;5078974;28;20138;-89
2021/09/17 08:00:40;;;;;;;28.55;24.90;;;;;;;;;;5079450;28;20391;-87
2021/09/17 08:03:06;;;;;;;30.05;25.60;;;;;;;;;;5079354;28;20163;-85
2021/09/17 08:05:33;;;;;;;34.22;26.50;;;;;;;;;;5096702;28;20132;-86
2021/09/17 08:07:59;;;;;;;34.10;25.90;;;;;;;;;;5096173;28;20043;-86
2021/09/17 08:10:25;;;;;;;29.75;25.45;;;;;;;;;;5079825;28;20440;-87
2021/09/17 08:12:51;;;;;;;30.00;25.20;;;;;;;;;;5095848;28;20476;-87
2021/09/17 08:15:17;;;;;;;27.75;24.70;;;;;;;;;;5095972;28;20130;-87
2021/09/17 08:17:44;;;;;;;31.52;26.55;;;;;;;;;;5095748;28;20043;-87
2021/09/17 08:20:10;;;;;;;29.92;24.90;;;;;;;;;;5079114;28;20510;-87
2021/09/17 08:22:36;;;;;;;28.23;24.98;;;;;;;;;;5078797;28;20054;-85
2021/09/17 08:25:04;;;;;;;29.38;24.70;;;;;;;;;;5078803;28;20142;-87
2021/09/17 08:27:30;;;;;;;28.75;23.95;;;;;;;;;;5078657;28;20039;-87
2021/09/17 08:29:56;;;;;;;26.38;23.48;;;;;;;;;;5079389;28;20047;-87
2021/09/17 08:32:22;;;;;;;29.17;23.85;;;;;;;;;;5079011;28;20097;-87
2021/09/17 08:34:48;;;;;;;27.90;23.27;;;;;;;;;;5095841;28;20484;-86
2021/09/17 08:37:14;;;;;;;27.50;22.70;;;;;;;;;;5096068;28;20054;-88
2021/09/17 08:39:41;;;;;;;25.33;21.55;;;;;;;;;;5078829;28;20055;-86
2021/09/17 08:42:08;;;;;;;26.85;22.60;;;;;;;;;;5079038;28;20040;-86
2021/09/17 08:44:34;;;;;;;28.55;22.92;;;;;;;;;;5078737;28;20539;-85
2021/09/17 08:47:01;;;;;;;24.65;21.75;;;;;;;;;;5078846;28;20039;-86
2021/09/17 08:49:27;;;;;;;25.23;21.70;;;;;;;;;;5095882;28;20052;-85
2021/09/17 08:51:53;;;;;;;25.55;22.73;;;;;;;;;;5078813;28;20051;-86
2021/09/17 08:54:20;;;;;;;25.80;22.63;;;;;;;;;;5095586;28;20371;-86
2021/09/17 08:56:46;;;;;;;23.60;21.10;;;;;;;;;;5078714;28;20047;-87
2021/09/17 08:59:12;;;;;;;26.35;23.15;;;;;;;;;;5079143;28;20458;-88
2021/09/17 09:01:38;;;;;;;25.55;22.85;;;;;;;;;;5078705;28;20087;-86
2021/09/17 09:04:07;;;;;;;27.13;23.02;;;;;;;;;;5095639;28;20433;-86
2021/09/17 09:06:38;;;;;;;25.63;22.27;;;;;;;;;;5098293;28;20046;-87
2021/09/17 09:09:26;;;;;;;23.70;21.20;;;;;;;;;;5082335;28;20072;-87
2021/09/17 09:11:54;;;;;;;25.67;22.77;;;;;;;;;;5082498;28;20057;-86
2021/09/17 09:14:21;;;;;;;23.33;20.90;;;;;;;;;;5082690;28;20054;-88
2021/09/17 09:16:48;;;;;;;25.55;22.40;;;;;;;;;;5082445;28;20043;-87
2021/09/17 09:19:20;;;;;;;23.95;20.80;;;;;;;;;;5100003;28;20127;-88
2021/09/17 09:21:47;;;;;;;22.73;20.17;;;;;;;;;;5082552;28;20101;-86
2021/09/17 09:24:18;;;;;;;23.17;19.70;;;;;;;;;;5082848;28;20059;-87
2021/09/17 09:26:45;;;;;;;23.27;20.20;;;;;;;;;;5082190;28;20391;-86
2021/09/17 09:29:31;;;;;;;23.60;21.02;;;;;;;;;;5098962;28;20039;-86
2021/09/17 09:31:58;;;;;;;24.90;21.10;;;;;;;;;;5099634;28;20054;-85
2021/09/17 09:34:44;;;;;;;23.98;21.38;;;;;;;;;;5081820;28;20047;-86
2021/09/17 09:37:11;;;;;;;24.02;20.90;;;;;;;;;;5081905;28;20048;-86
2021/09/17 09:39:56;;;;;;;26.38;21.05;;;;;;;;;;5081715;28;20193;-85
2021/09/17 09:42:29;;;;;;;23.30;20.60;;;;;;;;;;5081789;28;20090;-86
2021/09/17 09:45:06;;;;;;;23.98;20.05;;;;;;;;;;5099011;28;20047;-85
2021/09/17 09:47:34;;;;;;;24.42;21.95;;;;;;;;;;5081367;28;20507;-84
2021/09/17 09:50:07;;;;;;;26.67;21.15;;;;;;;;;;5081399;28;20062;-85
2021/09/17 09:52:33;;;;;;;23.60;21.20;;;;;;;;;;5099291;28;20130;-87
2021/09/17 09:54:59;;;;;;;20.17;18.08;;;;;;;;;;5098564;28;20072;-89
2021/09/17 09:57:26;;;;;;;19.98;17.80;;;;;;;;;;5081556;28;20044;-85
2021/09/17 09:59:53;;;;;;;19.45;17.33;;;;;;;;;;5081547;28;20062;-87
2021/09/17 10:02:23;;;;;;;20.60;18.05;;;;;;;;;;5098266;28;20044;-87
2021/09/17 10:04:50;;;;;;;22.40;18.17;;;;;;;;;;5097550;28;20098;-86
2021/09/17 10:07:18;;;;;;;19.60;17.20;;;;;;;;;;5097899;28;20490;-90
2021/09/17 10:09:44;;;;;;;20.15;17.45;;;;;;;;;;5081409;28;20097;-87
2021/09/17 10:12:11;;;;;;;19.23;17.23;;;;;;;;;;5081701;28;20084;-87
2021/09/17 10:14:38;;;;;;;19.50;16.90;;;;;;;;;;5081329;28;20036;-86
2021/09/17 10:17:08;;;;;;;17.75;15.95;;;;;;;;;;5080914;28;20417;-89
2021/09/17 10:19:34;;;;;;;17.75;15.85;;;;;;;;;;5099122;28;20440;-90
2021/09/17 10:22:01;;;;;;;17.77;15.43;;;;;;;;;;5081802;28;20048;-89
2021/09/17 10:24:27;;;;;;;19.58;15.38;;;;;;;;;;5081640;28;20116;-89
2021/09/17 10:27:00;;;;;;;16.77;15.07;;;;;;;;;;5097933;28;20051;-89
2021/09/17 10:29:32;;;;;;;17.40;15.60;;;;;;;;;;5082069;28;20360;-88
2021/09/17 10:32:00;;;;;;;17.52;15.73;;;;;;;;;;5081954;28;20071;-89
2021/09/17 10:34:29;;;;;;;17.08;15.32;;;;;;;;;;5098165;28;20039;-89
2021/09/17 10:36:56;;;;;;;19.58;15.77;;;;;;;;;;5081385;28;20050;-88
2021/09/17 10:39:22;;;;;;;16.58;14.77;;;;;;;;;;5081830;28;20047;-89
2021/09/17 10:42:07;;;;;;;17.73;15.48;;;;;;;;;;5081874;28;20044;-88
2021/09/17 10:44:53;;;;;;;16.38;13.15;;;;;;;;;;5080853;28;20044;-88
2021/09/17 10:47:38;;;;;;;14.63;12.73;;;;;;;;;;5080779;28;20043;-90
2021/09/17 10:50:05;;;;;;;14.93;11.65;;;;;;;;;;5098528;28;20043;-88
2021/09/17 10:52:38;;;;;;;12.63;11.32;;;;;;;;;;5097894;28;20400;-88
2021/09/17 10:55:05;;;;;;;11.87;10.67;;;;;;;;;;5097970;28;20043;-88
2021/09/17 10:57:31;;;;;;;12.05;10.52;;;;;;;;;;5097415;28;20138;-88
2021/09/17 10:59:59;;;;;;;13.63;11.80;;;;;;;;;;5080706;28;20418;-88
2021/09/17 11:02:51;;;;;;;16.70;13.75;;;;;;;;;;5080579;28;20185;-88
2021/09/17 11:05:18;;;;;;;16.45;13.45;;;;;;;;;;5093636;28;20062;-92
2021/09/17 11:07:46;;;;;;;13.60;11.63;;;;;;;;;;5097361;28;20059;-88
2021/09/17 11:10:24;;;;;;;12.85;11.55;;;;;;;;;;5097438;28;20054;-89
2021/09/17 11:12:50;;;;;;;14.00;12.18;;;;;;;;;;5080646;28;20043;-89
2021/09/17 11:15:17;;;;;;;13.98;11.90;;;;;;;;;;5097194;28;20150;-92
2021/09/17 11:17:56;;;;;;;12.88;11.52;;;;;;;;;;5097113;28;20487;-89
2021/09/17 11:20:22;;;;;;;12.48;11.27;;;;;;;;;;5096820;28;20536;-88
2021/09/17 11:22:50;;;;;;;11.90;10.60;;;;;;;;;;5081003;28;20048;-90
2021/09/17 11:25:19;;;;;;;12.30;10.90;;;;;;;;;;5080457;28;20083;-91
2021/09/17 11:27:46;;;;;;;12.77;11.48;;;;;;;;;;5079272;28;20047;-88
2021/09/17 11:30:12;;;;;;;13.88;12.40;;;;;;;;;;5080078;28;20066;-89
2021/09/17 11:32:39;;;;;;;12.07;10.73;;;;;;;;;;5096996;28;20485;-88
2021/09/17 11:35:08;;;;;;;12.07;10.18;;;;;;;;;;5079919;28;20043;-88
2021/09/17 11:37:35;;;;;;;11.23;10.13;;;;;;;;;;5097433;28;20047;-87
2021/09/17 11:40:08;;;;;;;12.13;10.80;;;;;;;;;;5080619;28;20043;-88
2021/09/17 11:42:35;;;;;;;10.05;9.05;;;;;;;;;;5079738;28;20050;-88
2021/09/17 11:45:11;;;;;;;11.07;8.57;;;;;;;;;;5079893;28;20120;-88
2021/09/17 11:47:38;;;;;;;11.07;8.95;;;;;;;;;;5080172;28;20389;-88
2021/09/17 11:50:06;;;;;;;10.93;9.43;;;;;;;;;;5096888;28;20396;-88
2021/09/17 11:52:49;;;;;;;12.23;10.98;;;;;;;;;;5096642;28;20047;-88
2021/09/17 11:55:21;;;;;;;10.82;9.27;;;;;;;;;;5096135;28;20051;-88
2021/09/17 11:57:48;;;;;;;11.63;9.65;;;;;;;;;;5079219;28;20126;-87
2021/09/17 12:00:16;;;;;;;9.38;8.48;;;;;;;;;;5079452;28;20113;-87
2021/09/17 12:02:43;;;;;;;10.40;9.30;;;;;;;;;;5079439;28;20074;-85
2021/09/17 12:05:14;;;;;;;10.35;9.18;;;;;;;;;;5078943;28;20540;-85
2021/09/17 12:07:41;;;;;;;11.25;9.98;;;;;;;;;;5096594;28;20104;-85
2021/09/17 12:10:11;;;;;;;12.07;9.65;;;;;;;;;;5096139;28;20035;-88
2021/09/17 12:12:40;;;;;;;10.38;9.15;;;;;;;;;;5096927;28;20040;-86
2021/09/17 12:15:06;;;;;;;12.55;10.23;;;;;;;;;;5079806;28;20055;-86
2021/09/17 12:17:33;;;;;;;11.13;10.00;;;;;;;;;;5079056;28;20044;-86
2021/09/17 12:20:04;;;;;;;9.75;8.85;;;;;;;;;;5078794;28;20141;-86
2021/09/17 12:22:38;;;;;;;11.40;8.77;;;;;;;;;;5078991;28;20058;-86
2021/09/17 12:25:14;;;;;;;10.43;9.38;;;;;;;;;;5078908;28;20051;-86
2021/09/17 12:27:47;;;;;;;9.60;8.48;;;;;;;;;;5079351;28;20134;-86
2021/09/17 12:30:15;;;;;;;9.25;8.35;;;;;;;;;;5079298;28;20516;-86
2021/09/17 12:32:41;;;;;;;8.98;8.18;;;;;;;;;;5095844;28;20092;-85
2021/09/17 12:35:08;;;;;;;9.57;8.63;;;;;;;;;;5095731;28;20044;-87
2021/09/17 12:37:34;;;;;;;9.50;8.55;;;;;;;;;;5078931;28;20044;-87
2021/09/17 12:40:13;;;;;;;10.15;8.60;;;;;;;;;;5096353;28;20093;-86
2021/09/17 12:42:40;;;;;;;9.77;8.43;;;;;;;;;;5083720;28;20051;-86
2021/09/17 12:45:08;;;;;;;9.63;8.63;;;;;;;;;;5099895;28;20109;-86
2021/09/17 12:47:34;;;;;;;10.05;7.97;;;;;;;;;;5083320;28;20464;-86
2021/09/17 12:50:11;;;;;;;9.05;7.97;;;;;;;;;;5083058;28;20368;-87
2021/09/17 12:52:43;;;;;;;9.52;8.18;;;;;;;;;;5083066;28;20054;-88
2021/09/17 12:55:31;;;;;;;11.13;8.93;;;;;;;;;;5082896;28;20059;-87
2021/09/17 12:58:17;;;;;;;9.68;8.68;;;;;;;;;;5083660;28;20056;-88
2021/09/17 13:00:45;;;;;;;9.30;7.97;;;;;;;;;;5082528;28;20052;-88
2021/09/17 13:03:12;;;;;;;8.98;8.02;;;;;;;;;;5082704;28;20454;-87
2021/09/17 13:05:42;;;;;;;9.68;8.65;;;;;;;;;;5098914;28;20054;-87
2021/09/17 13:08:09;;;;;;;9.55;8.55;;;;;;;;;;5082675;28;20040;-87
2021/09/17 13:10:37;;;;;;;10.10;8.63;;;;;;;;;;5082584;28;20048;-86
2021/09/17 13:13:04;;;;;;;10.40;9.38;;;;;;;;;;5082386;28;20070;-86
2021/09/17 13:15:30;;;;;;;10.73;9.38;;;;;;;;;;5082250;28;20139;-86
2021/09/17 13:17:57;;;;;;;10.95;9.07;;;;;;;;;;5099183;28;20432;-85
2021/09/17 13:20:24;;;;;;;9.95;8.77;;;;;;;;;;5082168;28;20453;-87
2021/09/17 13:22:52;;;;;;;9.38;8.48;;;;;;;;;;5082354;28;20493;-86
2021/09/17 13:25:18;;;;;;;9.35;8.25;;;;;;;;;;5082474;28;20049;-87
2021/09/17 13:27:49;;;;;;;10.27;7.75;;;;;;;;;;5099405;28;20039;-86
2021/09/17 13:30:16;;;;;;;9.18;8.15;;;;;;;;;;5082416;28;20184;-86
2021/09/17 13:32:42;;;;;;;9.75;8.30;;;;;;;;;;5099524;28;20031;-86
2021/09/17 13:35:09;;;;;;;11.90;8.75;;;;;;;;;;5081551;28;20093;-85
2021/09/17 13:37:38;;;;;;;8.90;8.10;;;;;;;;;;5081837;28;20070;-86
2021/09/17 13:40:05;;;;;;;7.80;7.00;;;;;;;;;;5082041;28;20086;-86
2021/09/17 13:42:31;;;;;;;8.18;6.63;;;;;;;;;;5081925;28;20039;-85
2021/09/17 13:44:58;;;;;;;9.48;7.65;;;;;;;;;;5082161;28;20047;-86
2021/09/17 13:47:24;;;;;;;9.77;7.70;;;;;;;;;;5082268;28;20063;-86
2021/09/17 13:49:50;;;;;;;7.72;6.93;;;;;;;;;;5098739;28;20059;-86
2021/09/17 13:52:17;;;;;;;7.15;6.45;;;;;;;;;;5081606;28;20238;-86
2021/09/17 13:54:43;;;;;;;7.68;6.10;;;;;;;;;;5081772;28;20051;-85
2021/09/17 13:57:09;;;;;;;6.78;6.00;;;;;;;;;;5098623;28;20388;-86
2021/09/17 13:59:37;;;;;;;6.72;5.78;;;;;;;;;;5081475;28;20040;-86
2021/09/17 14:02:04;;;;;;;6.45;5.50;;;;;;;;;;5081785;28;20051;-86
2021/09/17 14:04:31;;;;;;;8.85;6.43;;;;;;;;;;5084891;28;20088;-86
2021/09/17 14:06:57;;;;;;;7.78;6.55;;;;;;;;;;5074452;28;20126;-86
2021/09/17 14:09:24;;;;;;;7.45;6.03;;;;;;;;;;5057842;28;20056;-86
2021/09/17 14:11:51;;;;;;;8.77;6.63;;;;;;;;;;5057558;28;20058;-85
2021/09/17 14:14:18;;;;;;;7.18;6.40;;;;;;;;;;5057934;28;20056;-85
2021/09/17 14:16:45;;;;;;;7.28;5.97;;;;;;;;;;5058251;28;20072;-85
2021/09/17 14:19:16;;;;;;;7.32;6.18;;;;;;;;;;5075245;28;20040;-87
2021/09/17 14:21:43;;;;;;;7.22;6.45;;;;;;;;;;5075209;28;20455;-87
2021/09/17 14:24:10;;;;;;;9.15;6.50;;;;;;;;;;5057830;28;20056;-87